CheckWX is a tool to help pilots better visualize weather data.  It is not intended as a substitute for an official pre-flight weather briefing.

04:01:03 UTC

ETHB METAR
Buckeburg Airport
Germany
Current

41 mins ago

ETHB 250320Z 17010KT 9999 10/07 Q1008 BLU+
Observed
Apr-25 @ 03:20 UTC
Wind
  • 170° at 10 KTS
Visibility
10,000+ meters
Temperature
10°C / 50°F
Dewpoint
C / 45°F
Humidity
82%
Altimeter
29.76" Hg
Pressure
1007.92 hPa
Previous

2 hours ago

ETHB 250220Z 18004KT 9999 10/07 Q1007 BLU+
Observed
Apr-25 @ 02:20 UTC
Wind
  • 180° at 4 KTS
Visibility
10,000+ meters
Temperature
10°C / 50°F
Dewpoint
C / 45°F
Humidity
82%
Altimeter
29.73" Hg
Pressure
1006.92 hPa
Previous

3 hours ago

ETHB 250120Z 18007KT 9999 FEW050 SCT200 10/08 Q1007 BLU+
Observed
Apr-25 @ 01:20 UTC
Wind
  • 180° at 7 KTS
Visibility
10,000+ meters
Flight Rules
VFR
Cloud Levels
  • Few at 5,000' AGL
  • Scattered at 20,000' AGL
Temperature
10°C / 50°F
Dewpoint
C / 46°F
Humidity
88%
Altimeter
29.73" Hg
Pressure
1006.92 hPa